createdAt,value
2023-04-02T00:00:05.502Z,55.29
2023-04-02T00:03:14.239Z,55.20
2023-04-02T00:06:33.483Z,54.94
2023-04-02T00:09:37.762Z,54.94
2023-04-02T00:12:39.384Z,55.18
2023-04-02T00:15:43.820Z,54.98
2023-04-02T00:18:53.657Z,54.86
2023-04-02T00:21:57.178Z,55.48
2023-04-02T00:25:02.516Z,55.55
2023-04-02T00:28:04.752Z,55.21
2023-04-02T00:31:10.522Z,54.94
2023-04-02T00:34:26.088Z,54.77
2023-04-02T00:37:38.675Z,54.86
2023-04-02T00:40:42.219Z,54.64
2023-04-02T00:43:46.806Z,54.75
2023-04-02T00:46:50.082Z,54.73
2023-04-02T00:50:00.015Z,54.73
2023-04-02T00:53:10.582Z,54.20
2023-04-02T00:56:25.780Z,54.60
2023-04-02T00:59:33.675Z,54.59
2023-04-02T01:02:40.815Z,54.26
2023-04-02T01:05:50.214Z,54.53
2023-04-02T01:09:00.549Z,54.50
2023-04-02T01:12:21.105Z,54.38
2023-04-02T01:15:33.742Z,54.38
2023-04-02T01:18:50.216Z,54.30
2023-04-02T01:22:15.771Z,54.29
2023-04-02T01:25:24.956Z,54.89
2023-04-02T01:28:49.272Z,54.54
2023-04-02T01:31:53.262Z,54.48
2023-04-02T01:34:56.163Z,54.29
2023-04-02T01:38:10.644Z,54.17
2023-04-02T01:41:23.653Z,54.10
2023-04-02T01:44:41.847Z,54.06
2023-04-02T01:47:44.143Z,53.85
2023-04-02T01:50:49.742Z,53.75
2023-04-02T01:53:51.750Z,53.75
2023-04-02T01:56:53.534Z,53.46
2023-04-02T01:59:55.602Z,53.20
2023-04-02T02:02:59.096Z,53.19
2023-04-02T02:06:02.762Z,53.03
2023-04-02T02:09:07.234Z,53.35
2023-04-02T02:12:13.666Z,53.58
2023-04-02T02:15:17.754Z,53.68
2023-04-02T02:18:23.275Z,53.37
2023-04-02T02:21:36.827Z,53.58
2023-04-02T02:24:38.971Z,53.72
2023-04-02T02:27:50.359Z,53.88
2023-04-02T02:31:02.630Z,54.05
2023-04-02T02:34:12.837Z,54.59
2023-04-02T02:37:23.190Z,54.79
2023-04-02T02:40:36.476Z,54.76
2023-04-02T02:43:41.828Z,55.09
2023-04-02T02:46:49.814Z,54.89
2023-04-02T02:49:55.510Z,55.22
2023-04-02T02:53:00.321Z,55.14
2023-04-02T02:56:05.697Z,55.09
2023-04-02T02:59:16.857Z,55.16
2023-04-02T03:02:19.038Z,55.43
2023-04-02T03:05:23.728Z,55.88
2023-04-02T03:08:43.630Z,56.14
2023-04-02T03:12:12.283Z,56.58
2023-04-02T03:15:19.625Z,56.60
2023-04-02T03:18:33.380Z,56.95
2023-04-02T03:21:43.709Z,57.36
2023-04-02T03:25:02.004Z,57.79
2023-04-02T03:28:14.429Z,58.31
2023-04-02T03:31:25.394Z,58.09
2023-04-02T03:34:53.951Z,58.74
2023-04-02T03:38:04.760Z,59.05
2023-04-02T03:41:17.005Z,59.25
2023-04-02T03:44:28.712Z,59.52
2023-04-02T03:47:47.339Z,59.23
2023-04-02T03:51:02.991Z,59.72
2023-04-02T03:54:05.213Z,59.60
2023-04-02T03:57:21.120Z,59.61
2023-04-02T04:00:41.365Z,60.12
2023-04-02T04:04:07.656Z,60.32
2023-04-02T04:07:27.884Z,60.16
2023-04-02T04:10:31.096Z,60.13
2023-04-02T04:13:59.345Z,60.37
2023-04-02T04:17:30.400Z,60.18
2023-04-02T04:20:45.985Z,60.40
2023-04-02T04:23:51.480Z,60.00
2023-04-02T04:27:33.459Z,60.38
2023-04-02T04:31:00.048Z,60.25
2023-04-02T04:34:11.177Z,60.36
2023-04-02T04:37:25.263Z,60.93
2023-04-02T04:40:36.171Z,61.11
2023-04-02T04:43:52.219Z,60.91
2023-04-02T04:46:56.874Z,60.35
2023-04-02T04:50:16.701Z,60.31
2023-04-02T04:53:27.771Z,60.37
2023-04-02T04:56:32.323Z,60.15
2023-04-02T04:59:55.320Z,59.73
2023-04-02T05:03:13.372Z,59.62
2023-04-02T05:06:44.827Z,58.94
2023-04-02T05:09:59.558Z,58.98
2023-04-02T05:13:09.281Z,58.74
2023-04-02T05:16:31.343Z,58.92
2023-04-02T05:20:00.957Z,59.00
2023-04-02T05:23:12.357Z,58.80
2023-04-02T05:26:33.622Z,58.58
2023-04-02T05:29:41.435Z,58.36
2023-04-02T05:32:47.426Z,58.21
2023-04-02T05:35:55.949Z,58.88
2023-04-02T05:38:59.572Z,58.79
2023-04-02T05:42:23.366Z,59.09
2023-04-02T05:45:37.471Z,59.61
2023-04-02T05:48:43.783Z,59.46
2023-04-02T05:51:52.382Z,59.51
2023-04-02T05:55:05.007Z,59.61
2023-04-02T06:01:37.572Z,59.75
2023-04-02T06:05:04.239Z,59.28
2023-04-02T06:08:15.654Z,59.15
2023-04-02T06:11:23.811Z,59.44
2023-04-02T06:14:26.639Z,59.43
2023-04-02T06:17:29.874Z,58.82
2023-04-02T06:20:33.004Z,58.50
2023-04-02T06:23:49.954Z,58.89
2023-04-02T06:26:59.834Z,58.98
2023-04-02T06:30:06.176Z,58.87
2023-04-02T06:33:11.718Z,58.97
2023-04-02T06:36:16.845Z,58.55
2023-04-02T06:39:24.393Z,58.21
2023-04-02T06:42:31.132Z,58.01
2023-04-02T06:46:18.123Z,57.74
2023-04-02T06:49:41.545Z,57.21
2023-04-02T06:52:51.704Z,57.47
2023-04-02T06:56:04.395Z,57.45
2023-04-02T06:59:07.817Z,57.51
2023-04-02T07:02:46.651Z,57.50
2023-04-02T07:05:48.297Z,57.18
2023-04-02T07:08:50.100Z,57.33
2023-04-02T07:11:52.819Z,56.91
2023-04-02T07:14:55.109Z,56.74
2023-04-02T07:17:59.164Z,56.28
2023-04-02T07:21:01.335Z,56.08
2023-04-02T07:24:02.981Z,55.94
2023-04-02T07:27:04.488Z,55.44
2023-04-02T07:30:07.450Z,55.05
2023-04-02T07:33:13.998Z,55.51
2023-04-02T07:36:19.322Z,55.12
2023-04-02T07:39:20.852Z,54.80
2023-04-02T07:42:22.381Z,54.74
2023-04-02T07:45:23.931Z,54.57
2023-04-02T07:48:25.681Z,54.25
2023-04-02T07:51:27.257Z,54.21
2023-04-02T07:54:30.331Z,53.86
2023-04-02T07:57:32.117Z,53.34
2023-04-02T08:00:33.740Z,53.26
2023-04-02T08:03:35.624Z,53.13
2023-04-02T08:06:37.242Z,52.76
2023-04-02T08:09:38.756Z,52.55
2023-04-02T08:12:40.521Z,52.17
2023-04-02T08:15:42.693Z,51.82
2023-04-02T08:18:46.381Z,51.23
2023-04-02T08:21:51.348Z,50.47
2023-04-02T08:24:52.958Z,50.69
2023-04-02T08:27:54.510Z,50.99
2023-04-02T08:30:56.100Z,50.68
2023-04-02T08:33:58.764Z,49.85
2023-04-02T08:37:00.592Z,49.48
2023-04-02T08:40:03.633Z,48.88
2023-04-02T08:43:30.999Z,48.27
2023-04-02T08:46:44.928Z,47.87
2023-04-02T08:49:57.653Z,47.70
2023-04-02T08:53:00.620Z,47.57
2023-04-02T08:56:17.609Z,47.94
2023-04-02T08:59:37.896Z,47.72
2023-04-02T09:02:52.990Z,47.55
2023-04-02T09:05:56.105Z,47.45
2023-04-02T09:08:58.830Z,47.16
2023-04-02T09:12:05.456Z,46.16
2023-04-02T09:15:29.474Z,45.79
2023-04-02T09:18:32.513Z,45.40
2023-04-02T09:21:40.243Z,45.61
2023-04-02T09:24:41.802Z,46.26
2023-04-02T09:27:47.972Z,46.89
2023-04-02T09:31:07.198Z,46.44
2023-04-02T09:34:47.242Z,46.67
2023-04-02T09:38:11.520Z,46.53
2023-04-02T09:41:21.009Z,46.12
2023-04-02T09:44:22.512Z,45.29
2023-04-02T09:47:27.099Z,44.71
2023-04-02T09:50:33.352Z,44.52
2023-04-02T09:53:39.891Z,44.76
2023-04-02T09:57:02.775Z,44.42
2023-04-02T10:03:31.528Z,44.29
2023-04-02T10:06:34.855Z,44.23
2023-04-02T10:09:38.456Z,44.32
2023-04-02T10:12:42.154Z,44.80
2023-04-02T10:15:49.766Z,45.14
2023-04-02T10:18:57.590Z,45.70
2023-04-02T10:22:03.046Z,46.08
2023-04-02T10:25:17.603Z,45.98
2023-04-02T10:28:33.418Z,45.26
2023-04-02T10:31:55.629Z,44.59
2023-04-02T10:35:26.384Z,43.74
2023-04-02T10:38:47.424Z,43.27
2023-04-02T10:42:35.012Z,43.65
2023-04-02T10:45:45.177Z,44.03
2023-04-02T10:48:54.334Z,43.92
2023-04-02T10:52:03.832Z,43.29
2023-04-02T10:55:18.156Z,43.18
2023-04-02T10:58:24.521Z,42.75
2023-04-02T11:01:29.721Z,43.11
2023-04-02T11:04:56.737Z,42.23
2023-04-02T11:08:20.105Z,41.82
2023-04-02T11:11:23.066Z,42.39
2023-04-02T11:14:28.283Z,42.28
2023-04-02T11:17:29.844Z,42.66
2023-04-02T11:20:49.615Z,42.69
2023-04-02T11:24:00.107Z,42.66
2023-04-02T11:27:16.966Z,42.36
2023-04-02T11:30:25.546Z,42.29
2023-04-02T11:33:37.374Z,42.16
2023-04-02T11:36:55.367Z,41.96
2023-04-02T11:39:59.239Z,42.28
2023-04-02T11:43:35.951Z,41.62
2023-04-02T11:46:42.977Z,42.27
2023-04-02T11:49:57.530Z,41.87
2023-04-02T11:53:05.298Z,41.54
2023-04-02T11:56:19.966Z,41.93
2023-04-02T11:59:36.936Z,41.46
2023-04-02T12:02:57.074Z,41.19
2023-04-02T12:06:13.209Z,41.09
2023-04-02T12:09:14.745Z,41.33
2023-04-02T12:12:29.029Z,42.16
2023-04-02T12:15:37.822Z,43.20
2023-04-02T12:18:54.150Z,43.03
2023-04-02T12:21:56.383Z,43.45
2023-04-02T12:25:15.906Z,44.43
2023-04-02T12:28:18.471Z,45.18
2023-04-02T12:31:22.779Z,45.53
2023-04-02T12:34:29.923Z,45.62
2023-04-02T12:37:31.854Z,45.46
2023-04-02T12:40:33.940Z,45.79
2023-04-02T12:43:37.943Z,46.15
2023-04-02T12:46:40.530Z,46.84
2023-04-02T12:49:43.849Z,47.59
2023-04-02T12:52:47.762Z,48.38
2023-04-02T12:55:51.480Z,49.34
2023-04-02T12:58:58.299Z,49.72
2023-04-02T13:02:02.357Z,49.67
2023-04-02T13:05:04.216Z,50.00
2023-04-02T13:08:06.032Z,50.20
2023-04-02T13:11:07.932Z,49.98
2023-04-02T13:14:19.882Z,50.40
2023-04-02T13:17:44.229Z,50.66
2023-04-02T13:21:06.274Z,51.15
2023-04-02T13:24:20.531Z,51.71
2023-04-02T13:27:22.416Z,52.10
2023-04-02T13:30:26.568Z,52.39
2023-04-02T13:33:28.043Z,52.89
2023-04-02T13:36:29.816Z,53.32
2023-04-02T13:39:31.421Z,53.39
2023-04-02T13:42:32.996Z,53.53
2023-04-02T13:45:38.574Z,53.77
2023-04-02T13:48:40.228Z,54.14
2023-04-02T13:51:47.851Z,54.15
2023-04-02T13:54:52.920Z,54.23
2023-04-02T13:57:56.514Z,54.14
2023-04-02T14:00:58.150Z,54.35
2023-04-02T14:04:00.473Z,54.56
2023-04-02T14:07:02.207Z,54.65
2023-04-02T14:10:31.483Z,54.95
2023-04-02T14:13:36.005Z,55.11
2023-04-02T14:17:19.596Z,55.42
2023-04-02T14:20:42.155Z,55.13
2023-04-02T14:24:02.672Z,55.12
2023-04-02T14:27:24.242Z,55.27
2023-04-02T14:30:56.560Z,55.00
2023-04-02T14:34:22.897Z,54.67
2023-04-02T14:37:44.633Z,54.63
2023-04-02T14:40:58.906Z,55.02
2023-04-02T14:44:04.214Z,55.00
2023-04-02T14:47:13.556Z,55.37
2023-04-02T14:50:33.177Z,55.42
2023-04-02T14:53:52.632Z,55.46
2023-04-02T14:56:59.306Z,55.42
2023-04-02T15:00:10.662Z,55.71
2023-04-02T15:03:18.337Z,55.36
2023-04-02T15:06:49.504Z,55.36
2023-04-02T15:10:12.385Z,54.99
2023-04-02T15:13:21.149Z,54.41
2023-04-02T15:16:26.676Z,54.52
2023-04-02T15:19:28.266Z,54.42
2023-04-02T15:22:42.370Z,54.72
2023-04-02T15:26:22.322Z,54.31
2023-04-02T15:29:39.184Z,54.01
2023-04-02T15:32:43.155Z,54.81
2023-04-02T15:35:51.101Z,55.29
2023-04-02T15:39:15.374Z,54.78
2023-04-02T15:42:30.530Z,54.88
2023-04-02T15:45:31.991Z,54.71
2023-04-02T15:48:42.173Z,54.59
2023-04-02T15:52:11.478Z,54.80
2023-04-02T15:55:39.561Z,54.83
2023-04-02T15:59:13.727Z,54.81
2023-04-02T16:02:37.300Z,55.19
2023-04-02T16:06:19.286Z,55.44
2023-04-02T16:09:47.906Z,55.86
2023-04-02T16:12:52.181Z,55.80
2023-04-02T16:16:03.073Z,56.48
2023-04-02T16:19:16.776Z,56.45
2023-04-02T16:22:28.989Z,56.73
2023-04-02T16:25:53.570Z,57.05
2023-04-02T16:29:13.882Z,56.97
2023-04-02T16:32:52.803Z,57.68
2023-04-02T16:36:29.991Z,57.57
2023-04-02T16:39:51.308Z,57.59
2023-04-02T16:42:58.727Z,57.17
2023-04-02T16:46:31.746Z,57.52
2023-04-02T16:50:38.010Z,57.74
2023-04-02T16:53:54.502Z,58.17
2023-04-02T16:57:31.945Z,58.28
2023-04-02T17:00:44.919Z,58.26
2023-04-02T17:04:18.324Z,58.66
2023-04-02T17:07:27.509Z,58.71
2023-04-02T17:10:33.331Z,58.25
2023-04-02T17:13:46.859Z,58.52
2023-04-02T17:16:52.412Z,58.47
2023-04-02T17:19:59.950Z,58.47
2023-04-02T17:23:03.656Z,58.90
2023-04-02T17:26:09.112Z,58.98
2023-04-02T17:29:18.973Z,59.10
2023-04-02T17:32:25.979Z,58.92
2023-04-02T17:35:48.663Z,59.06
2023-04-02T17:39:15.663Z,59.45
2023-04-02T17:42:17.099Z,59.31
2023-04-02T17:46:01.706Z,59.75
2023-04-02T17:49:17.825Z,59.82
2023-04-02T17:52:33.660Z,59.95
2023-04-02T17:56:06.066Z,59.77
2023-04-02T17:59:26.378Z,59.48
2023-04-02T18:02:36.900Z,59.69
2023-04-02T18:06:00.520Z,60.11
2023-04-02T18:09:23.986Z,60.41
2023-04-02T18:12:43.730Z,60.56
2023-04-02T18:16:15.887Z,60.86
2023-04-02T18:19:40.335Z,60.53
2023-04-02T18:22:49.222Z,60.98
2023-04-02T18:26:38.965Z,61.15
2023-04-02T18:30:00.052Z,61.17
2023-04-02T18:33:14.238Z,61.14
2023-04-02T18:36:33.308Z,61.26
2023-04-02T18:39:37.909Z,61.38
2023-04-02T18:43:11.706Z,61.24
2023-04-02T18:46:37.374Z,61.23
2023-04-02T18:49:43.468Z,61.53
2023-04-02T18:52:45.336Z,61.07
2023-04-02T18:55:51.651Z,61.40
2023-04-02T18:59:14.565Z,61.92
2023-04-02T19:02:37.911Z,61.75
2023-04-02T19:06:03.349Z,62.01
2023-04-02T19:09:13.022Z,61.91
2023-04-02T19:12:20.196Z,62.04
2023-04-02T19:15:26.383Z,62.13
2023-04-02T19:19:10.358Z,61.86
2023-04-02T19:22:51.465Z,62.07
2023-04-02T19:26:09.570Z,61.97
2023-04-02T19:29:11.056Z,61.87
2023-04-02T19:32:27.442Z,62.10
2023-04-02T19:35:53.821Z,62.16
2023-04-02T19:39:20.938Z,61.83
2023-04-02T19:42:37.257Z,61.85
2023-04-02T19:45:41.663Z,61.94
2023-04-02T19:49:19.781Z,62.19
2023-04-02T19:52:21.462Z,61.93
2023-04-02T19:55:23.166Z,62.16
2023-04-02T19:58:27.644Z,62.17
2023-04-02T20:01:29.286Z,62.06
2023-04-02T20:04:30.850Z,62.03
2023-04-02T20:07:32.406Z,62.16
2023-04-02T20:10:34.992Z,62.06
2023-04-02T20:13:37.026Z,62.06
2023-04-02T20:16:38.678Z,61.97
2023-04-02T20:19:40.700Z,62.66
2023-04-02T20:22:42.186Z,62.43
2023-04-02T20:25:54.948Z,62.42
2023-04-02T20:28:56.457Z,62.21
2023-04-02T20:31:57.880Z,62.28
2023-04-02T20:34:59.437Z,62.49
2023-04-02T20:38:03.049Z,62.48
2023-04-02T20:41:07.197Z,62.33
2023-04-02T20:44:08.586Z,62.58
2023-04-02T20:47:10.976Z,62.18
2023-04-02T20:50:12.621Z,62.10
2023-04-02T20:53:14.167Z,62.23
2023-04-02T20:56:17.315Z,62.12
2023-04-02T20:59:19.081Z,62.12
2023-04-02T21:02:20.839Z,62.35
2023-04-02T21:05:22.302Z,62.61
2023-04-02T21:08:24.262Z,62.59
2023-04-02T21:11:26.231Z,62.66
2023-04-02T21:14:27.746Z,62.68
2023-04-02T21:17:29.328Z,62.71
2023-04-02T21:20:31.940Z,62.86
2023-04-02T21:23:34.198Z,62.55
2023-04-02T21:26:40.284Z,63.00
2023-04-02T21:29:41.759Z,62.92
2023-04-02T21:32:43.315Z,62.68
2023-04-02T21:35:44.757Z,62.84
2023-04-02T21:38:51.664Z,62.64
2023-04-02T21:41:53.607Z,62.61
2023-04-02T21:44:55.954Z,62.86
2023-04-02T21:47:57.470Z,62.50
2023-04-02T21:51:20.409Z,62.74
2023-04-02T21:54:22.235Z,62.83
2023-04-02T21:57:23.798Z,62.39
2023-04-02T22:00:26.415Z,62.65
2023-04-02T22:03:31.915Z,62.31
2023-04-02T22:06:39.007Z,61.71
2023-04-02T22:09:40.589Z,60.76
2023-04-02T22:12:42.158Z,60.77
2023-04-02T22:15:43.588Z,60.43
2023-04-02T22:18:45.721Z,60.25
2023-04-02T22:21:47.647Z,60.29
2023-04-02T22:24:49.145Z,59.88
2023-04-02T22:27:52.001Z,59.54
2023-04-02T22:30:54.975Z,59.36
2023-04-02T22:33:57.891Z,58.88
2023-04-02T22:36:59.424Z,58.80
2023-04-02T22:40:01.162Z,58.66
2023-04-02T22:43:02.709Z,58.84
2023-04-02T22:46:06.087Z,58.91
2023-04-02T22:49:07.611Z,58.38
2023-04-02T22:52:09.133Z,58.49
2023-04-02T22:55:15.104Z,58.54
2023-04-02T22:58:16.569Z,58.25
2023-04-02T23:01:27.817Z,58.31
2023-04-02T23:04:29.337Z,57.97
2023-04-02T23:07:31.189Z,57.90
2023-04-02T23:10:32.854Z,57.80
2023-04-02T23:13:35.652Z,57.81
2023-04-02T23:16:37.126Z,57.41
2023-04-02T23:19:38.734Z,57.39
2023-04-02T23:22:40.191Z,57.01
2023-04-02T23:25:41.659Z,57.11
2023-04-02T23:28:43.892Z,57.10
2023-04-02T23:31:45.692Z,57.34
2023-04-02T23:34:47.135Z,57.48
2023-04-02T23:37:49.245Z,57.56
2023-04-02T23:40:50.922Z,57.26
2023-04-02T23:43:53.020Z,57.39
2023-04-02T23:46:54.650Z,57.35
2023-04-02T23:49:56.249Z,57.46
2023-04-02T23:52:57.678Z,57.15
2023-04-02T23:55:59.754Z,57.09
2023-04-02T23:59:01.236Z,57.18
